Time;durP1;ratioP1;P1;durP2;ratioP2;P2;SDS_P1;SDS_P2;PMS_P1;PMS_P2;Temp;Humidity;BMP_temperature;BMP_pressure;BME280_temperature;BME280_humidity;BME280_pressure;Samples;Min_cycle;Max_cycle;Signal;HPM_P1;HPM_P2
2024/01/28 00:00:46;;;;;;;17.92;5.95;;;8.30;99.90;;;;;;5067817;28;20024;-49
2024/01/28 00:03:12;;;;;;;13.63;6.25;;;8.30;99.90;;;;;;5067781;28;20039;-49
2024/01/28 00:05:38;;;;;;;21.38;6.28;;;8.30;99.90;;;;;;5067573;28;20380;-49
2024/01/28 00:08:04;;;;;;;20.60;6.35;;;8.30;99.90;;;;;;5067861;28;20029;-49
2024/01/28 00:10:30;;;;;;;14.40;5.80;;;8.30;99.90;;;;;;5067803;28;20025;-50
2024/01/28 00:12:56;;;;;;;18.55;5.85;;;8.20;99.90;;;;;;5085652;28;20040;-49
2024/01/28 00:15:21;;;;;;;17.42;5.80;;;8.20;99.90;;;;;;5067620;28;20052;-50
2024/01/28 00:17:47;;;;;;;14.50;6.03;;;8.20;99.90;;;;;;5053697;28;20029;-49
2024/01/28 00:20:13;;;;;;;20.75;6.63;;;8.20;99.90;;;;;;5055032;28;20027;-50
2024/01/28 00:22:39;;;;;;;19.23;5.55;;;8.20;99.90;;;;;;5072729;28;20560;-49
2024/01/28 00:25:05;;;;;;;16.65;5.88;;;8.10;99.90;;;;;;5089410;28;20024;-48
2024/01/28 00:27:30;;;;;;;17.65;5.63;;;8.20;99.90;;;;;;5071666;28;20060;-49
2024/01/28 00:29:56;;;;;;;15.70;6.00;;;8.10;99.90;;;;;;5071280;28;20078;-50
2024/01/28 00:32:21;;;;;;;14.57;5.18;;;8.10;99.90;;;;;;5089135;28;20094;-50
2024/01/28 00:34:47;;;;;;;20.45;6.18;;;8.10;99.90;;;;;;5089089;28;20041;-49
2024/01/28 00:37:13;;;;;;;18.08;5.70;;;8.10;99.90;;;;;;5070817;28;20040;-50
2024/01/28 00:39:39;;;;;;;13.57;6.15;;;8.10;99.90;;;;;;5088868;28;20052;-49
2024/01/28 00:42:05;;;;;;;17.00;5.97;;;8.10;99.90;;;;;;5070840;28;20028;-50
2024/01/28 00:44:31;;;;;;;15.55;5.63;;;8.00;99.90;;;;;;5088617;28;20052;-49
2024/01/28 00:46:57;;;;;;;16.30;5.47;;;8.10;99.90;;;;;;5070792;28;20036;-49
2024/01/28 00:49:29;;;;;;;20.65;5.43;;;8.00;99.90;;;;;;5088746;28;20492;-50
2024/01/28 00:51:57;;;;;;;12.63;5.07;;;8.00;99.90;;;;;;5071514;28;20492;-49
2024/01/28 00:54:26;;;;;;;15.23;5.38;;;8.00;99.90;;;;;;5071029;28;20396;-50
2024/01/28 00:56:56;;;;;;;15.98;4.85;;;8.00;99.90;;;;;;5070522;28;20024;-49
2024/01/28 00:59:21;;;;;;;13.95;5.75;;;7.90;99.90;;;;;;5071321;28;20036;-49
2024/01/28 01:01:47;;;;;;;12.60;5.22;;;7.90;99.90;;;;;;5070553;28;20099;-49
2024/01/28 01:04:13;;;;;;;12.35;5.35;;;7.90;99.90;;;;;;5070486;28;20025;-50
2024/01/28 01:06:41;;;;;;;12.65;5.68;;;7.90;99.90;;;;;;5070411;28;20024;-49
2024/01/28 01:09:09;;;;;;;19.63;5.68;;;7.80;99.90;;;;;;5071010;28;20218;-49
2024/01/28 01:11:35;;;;;;;12.55;5.50;;;7.90;99.90;;;;;;5070909;28;20024;-49
2024/01/28 01:14:01;;;;;;;18.02;5.90;;;7.80;99.90;;;;;;5070401;28;20025;-49
2024/01/28 01:16:27;;;;;;;12.20;5.05;;;7.80;99.90;;;;;;5070361;28;20039;-49
2024/01/28 01:18:52;;;;;;;17.10;5.50;;;7.80;99.90;;;;;;5088149;28;20488;-49
2024/01/28 01:21:18;;;;;;;15.15;5.97;;;7.80;99.90;;;;;;5053447;28;20040;-49
2024/01/28 01:23:43;;;;;;;14.60;5.35;;;7.80;99.90;;;;;;5070073;28;20064;-49
2024/01/28 01:26:09;;;;;;;15.35;5.28;;;7.80;99.90;;;;;;5070192;28;20036;-49
2024/01/28 01:28:35;;;;;;;12.45;5.28;;;7.70;99.90;;;;;;5069442;28;20048;-49
2024/01/28 01:31:04;;;;;;;19.52;5.65;;;7.70;99.90;;;;;;5069982;28;20029;-50
2024/01/28 01:33:29;;;;;;;12.05;4.90;;;7.70;99.90;;;;;;5070026;28;20032;-50
2024/01/28 01:35:55;;;;;;;16.02;5.50;;;7.70;99.90;;;;;;5069753;28;20086;-49
2024/01/28 01:38:22;;;;;;;11.45;6.05;;;7.70;99.90;;;;;;5069940;28;20029;-49
2024/01/28 01:40:47;;;;;;;14.20;5.18;;;7.70;99.90;;;;;;5070134;28;20024;-49
2024/01/28 01:43:15;;;;;;;12.52;5.07;;;7.60;99.90;;;;;;5087842;28;20029;-49
2024/01/28 01:45:44;;;;;;;8.93;4.65;;;7.60;99.90;;;;;;5069728;28;20158;-50
2024/01/28 01:48:12;;;;;;;10.30;4.97;;;7.60;99.90;;;;;;5087464;28;20054;-49
2024/01/28 01:50:39;;;;;;;11.00;4.75;;;7.60;99.90;;;;;;5069850;28;20024;-50
2024/01/28 01:53:05;;;;;;;16.15;5.90;;;7.60;99.90;;;;;;5069817;28;20031;-49
2024/01/28 01:55:34;;;;;;;13.02;5.15;;;7.60;99.90;;;;;;5069336;28;20021;-49
2024/01/28 01:58:00;;;;;;;11.00;4.82;;;7.50;99.90;;;;;;5069766;28;20020;-49
2024/01/28 02:00:26;;;;;;;10.38;4.93;;;7.60;99.90;;;;;;5069272;28;20035;-49
2024/01/28 02:02:51;;;;;;;11.40;4.70;;;7.50;99.90;;;;;;5069315;28;20024;-49
2024/01/28 02:05:17;;;;;;;14.52;5.00;;;7.50;99.90;;;;;;5069275;28;20035;-50
2024/01/28 02:07:42;;;;;;;15.70;4.43;;;7.50;99.90;;;;;;5069362;28;20495;-49
2024/01/28 02:10:09;;;;;;;16.15;5.65;;;7.50;99.90;;;;;;5052522;28;20028;-49
2024/01/28 02:12:35;;;;;;;11.27;5.30;;;7.50;99.90;;;;;;5052667;28;20028;-49
2024/01/28 02:15:09;;;;;;;11.15;5.07;;;7.50;99.90;;;;;;5069112;28;20115;-49
2024/01/28 02:17:34;;;;;;;14.38;5.47;;;7.50;99.90;;;;;;5069606;28;20036;-49
2024/01/28 02:20:00;;;;;;;10.73;5.13;;;7.50;99.90;;;;;;5086798;28;20519;-49
2024/01/28 02:22:26;;;;;;;11.05;4.90;;;7.50;99.90;;;;;;5086870;28;20036;-49
2024/01/28 02:24:52;;;;;;;11.57;5.28;;;7.50;99.90;;;;;;5068803;28;20104;-50
2024/01/28 02:27:17;;;;;;;13.77;5.45;;;7.40;99.90;;;;;;5068855;28;20038;-50
2024/01/28 02:29:43;;;;;;;13.63;4.85;;;7.40;99.90;;;;;;5068870;28;20028;-49
2024/01/28 02:32:11;;;;;;;16.23;5.10;;;7.40;99.90;;;;;;5085474;28;20028;-49
2024/01/28 02:34:37;;;;;;;10.98;5.07;;;7.40;99.90;;;;;;5068817;28;20051;-49
2024/01/28 02:37:02;;;;;;;14.07;5.00;;;7.30;99.90;;;;;;5068463;28;20037;-49
2024/01/28 02:39:28;;;;;;;10.10;4.55;;;7.30;99.90;;;;;;5086485;28;20059;-49
2024/01/28 02:41:54;;;;;;;12.43;5.22;;;7.30;99.90;;;;;;5068926;28;20028;-50
2024/01/28 02:44:20;;;;;;;10.93;4.85;;;7.30;99.90;;;;;;5068608;28;20425;-49
2024/01/28 02:46:45;;;;;;;10.80;5.22;;;7.30;99.90;;;;;;5068673;28;20481;-50
2024/01/28 02:49:11;;;;;;;8.88;4.38;;;7.20;99.90;;;;;;5068526;28;20044;-49
2024/01/28 02:51:37;;;;;;;8.85;4.68;;;7.30;99.90;;;;;;5051984;28;20028;-49
2024/01/28 02:54:02;;;;;;;14.00;5.15;;;7.20;99.90;;;;;;5086416;28;20075;-49
2024/01/28 02:56:28;;;;;;;10.85;5.13;;;7.20;99.90;;;;;;5068461;28;20032;-49
2024/01/28 02:58:54;;;;;;;13.82;4.90;;;7.20;99.90;;;;;;5068623;28;20464;-50
2024/01/28 03:01:20;;;;;;;9.65;4.63;;;7.20;99.90;;;;;;5086473;28;20036;-49
2024/01/28 03:03:45;;;;;;;14.82;4.88;;;7.20;99.90;;;;;;5086235;28;20035;-49
2024/01/28 03:06:11;;;;;;;13.55;4.97;;;7.20;99.90;;;;;;5068335;28;20036;-49
2024/01/28 03:08:36;;;;;;;10.77;5.07;;;7.20;99.90;;;;;;5068394;28;20035;-49
2024/01/28 03:11:02;;;;;;;8.85;5.22;;;7.20;99.90;;;;;;5068305;28;20024;-49
2024/01/28 03:13:27;;;;;;;9.73;4.55;;;7.20;99.90;;;;;;5086170;28;20036;-49
2024/01/28 03:15:54;;;;;;;8.10;4.38;;;7.20;99.90;;;;;;5086212;28;20040;-50
2024/01/28 03:18:21;;;;;;;10.80;5.03;;;7.10;99.90;;;;;;5086194;28;20032;-50
2024/01/28 03:20:46;;;;;;;13.00;5.10;;;7.10;99.90;;;;;;5086469;28;20025;-49
2024/01/28 03:23:12;;;;;;;10.38;5.03;;;7.20;99.90;;;;;;5068257;28;20032;-49
2024/01/28 03:25:38;;;;;;;9.35;4.50;;;7.10;99.90;;;;;;5068039;28;20032;-49
2024/01/28 03:28:05;;;;;;;9.70;4.75;;;7.10;99.90;;;;;;5051357;28;20039;-49
2024/01/28 03:30:31;;;;;;;12.23;5.10;;;7.10;99.90;;;;;;5068234;28;20025;-49
2024/01/28 03:32:56;;;;;;;10.27;5.20;;;7.10;99.90;;;;;;5068164;28;20368;-50
2024/01/28 03:35:22;;;;;;;7.32;4.88;;;7.10;99.90;;;;;;5067952;28;20059;-50
2024/01/28 03:37:48;;;;;;;10.50;4.60;;;7.10;99.90;;;;;;5068101;28;20029;-49
2024/01/28 03:40:13;;;;;;;7.35;4.25;;;7.10;99.90;;;;;;5067954;28;20042;-49
2024/01/28 03:42:39;;;;;;;8.05;4.47;;;7.10;99.90;;;;;;5068112;28;20033;-49
2024/01/28 03:45:05;;;;;;;9.00;4.55;;;7.10;99.90;;;;;;5085831;28;20027;-49
2024/01/28 03:47:32;;;;;;;13.18;5.20;;;7.10;99.90;;;;;;5068111;28;20029;-49
2024/01/28 03:49:57;;;;;;;10.75;5.22;;;7.10;99.90;;;;;;5085905;28;20047;-49
2024/01/28 03:52:23;;;;;;;11.68;5.18;;;7.10;99.90;;;;;;5053400;28;20029;-49
2024/01/28 03:54:49;;;;;;;9.52;5.18;;;7.00;99.90;;;;;;5071984;28;20032;-49
2024/01/28 03:57:14;;;;;;;8.48;4.72;;;7.00;99.90;;;;;;5055121;28;20046;-49
2024/01/28 03:59:40;;;;;;;9.90;4.70;;;7.10;99.90;;;;;;5071841;28;20036;-49
2024/01/28 04:02:07;;;;;;;7.63;4.57;;;7.00;99.90;;;;;;5089798;28;20480;-59
2024/01/28 04:04:33;;;;;;;9.85;4.28;;;7.00;99.90;;;;;;5089496;28;20050;-59
2024/01/28 04:06:59;;;;;;;9.93;4.75;;;7.10;99.90;;;;;;5089524;28;20021;-59
2024/01/28 04:09:24;;;;;;;9.18;4.43;;;7.10;99.90;;;;;;5071499;28;20066;-59
2024/01/28 04:11:50;;;;;;;7.68;4.72;;;7.00;99.90;;;;;;5071337;28;20024;-59
2024/01/28 04:14:15;;;;;;;10.00;4.82;;;7.00;99.90;;;;;;5071605;28;20043;-59
2024/01/28 04:16:41;;;;;;;8.30;4.55;;;7.00;99.90;;;;;;5071613;28;20029;-59
2024/01/28 04:19:07;;;;;;;6.38;4.05;;;7.10;99.90;;;;;;5089250;28;20036;-59
2024/01/28 04:21:32;;;;;;;7.50;4.57;;;7.00;99.90;;;;;;5071447;28;20035;-60
2024/01/28 04:23:58;;;;;;;9.95;4.60;;;7.10;99.90;;;;;;5071306;28;20389;-59
2024/01/28 04:26:24;;;;;;;6.25;4.78;;;7.10;99.90;;;;;;5089219;28;20031;-59
2024/01/28 04:28:49;;;;;;;9.15;4.38;;;7.00;99.90;;;;;;5054488;28;20024;-59
2024/01/28 04:31:16;;;;;;;11.70;4.93;;;7.10;99.90;;;;;;5071180;28;20457;-59
2024/01/28 04:33:41;;;;;;;7.63;5.05;;;7.00;99.90;;;;;;5071445;28;20036;-59
2024/01/28 04:36:07;;;;;;;6.75;4.68;;;7.00;99.90;;;;;;5070843;28;20058;-59
2024/01/28 04:38:36;;;;;;;8.57;4.53;;;7.00;99.90;;;;;;5071104;28;20028;-59
2024/01/28 04:41:02;;;;;;;8.77;4.97;;;7.10;99.90;;;;;;5088958;28;20037;-59
2024/01/28 04:43:28;;;;;;;10.15;4.65;;;7.00;99.90;;;;;;5070993;28;20037;-59
2024/01/28 04:45:53;;;;;;;7.15;4.60;;;7.00;99.90;;;;;;5070859;28;20031;-59
2024/01/28 04:48:19;;;;;;;10.05;4.65;;;7.00;99.90;;;;;;5088841;28;20033;-59
2024/01/28 04:50:45;;;;;;;8.75;4.80;;;7.00;99.90;;;;;;5070914;28;20028;-59
2024/01/28 04:53:11;;;;;;;8.80;4.82;;;7.00;99.90;;;;;;5070765;28;20024;-59
2024/01/28 04:55:36;;;;;;;6.95;4.07;;;7.00;99.90;;;;;;5053888;28;20036;-59
2024/01/28 04:58:02;;;;;;;7.88;4.22;;;7.10;99.90;;;;;;5070586;28;20028;-59
2024/01/28 05:00:28;;;;;;;9.93;4.97;;;7.00;99.90;;;;;;5070599;28;20431;-59
2024/01/28 05:02:56;;;;;;;8.75;5.20;;;7.00;99.90;;;;;;5069614;28;20024;-59
2024/01/28 05:05:24;;;;;;;10.25;5.07;;;7.00;99.90;;;;;;5070600;28;20048;-59
2024/01/28 05:07:50;;;;;;;9.65;4.55;;;7.00;99.90;;;;;;5070696;28;20032;-59
2024/01/28 05:10:16;;;;;;;7.90;4.55;;;7.00;99.90;;;;;;5088309;28;20138;-59
2024/01/28 05:12:42;;;;;;;10.43;5.03;;;7.00;99.90;;;;;;5088316;28;20100;-59
2024/01/28 05:15:08;;;;;;;9.25;4.63;;;7.00;99.90;;;;;;5070537;28;20033;-59
2024/01/28 05:17:35;;;;;;;6.47;4.72;;;7.00;99.90;;;;;;5070052;28;20032;-59
2024/01/28 05:20:02;;;;;;;10.40;5.20;;;7.00;99.90;;;;;;5070298;28;20105;-59
2024/01/28 05:22:28;;;;;;;9.32;4.95;;;7.00;99.90;;;;;;5088153;28;20036;-59
2024/01/28 05:24:54;;;;;;;8.38;5.10;;;7.00;99.90;;;;;;5070059;28;20048;-59
2024/01/28 05:27:20;;;;;;;8.30;4.47;;;7.00;99.90;;;;;;5088069;28;20031;-59
2024/01/28 05:29:45;;;;;;;10.93;4.80;;;7.00;99.90;;;;;;5070098;28;20060;-59
2024/01/28 05:32:12;;;;;;;6.65;4.80;;;7.00;99.90;;;;;;5087976;28;20024;-59
2024/01/28 05:34:37;;;;;;;7.82;4.95;;;7.00;99.90;;;;;;5087893;28;20152;-59
2024/01/28 05:37:03;;;;;;;7.43;4.95;;;7.00;99.90;;;;;;5087637;28;20036;-59
2024/01/28 05:39:28;;;;;;;8.98;5.07;;;7.00;99.90;;;;;;5069731;28;20040;-59
2024/01/28 05:41:54;;;;;;;8.45;5.18;;;7.00;99.90;;;;;;5069749;28;20029;-59
2024/01/28 05:44:20;;;;;;;6.70;4.85;;;7.00;99.90;;;;;;5087704;28;20035;-59
2024/01/28 05:46:45;;;;;;;9.00;4.97;;;7.00;99.90;;;;;;5087796;28;20465;-59
2024/01/28 05:49:11;;;;;;;8.30;5.05;;;7.00;99.90;;;;;;5069676;28;20028;-59
2024/01/28 05:51:39;;;;;;;9.70;5.00;;;7.00;99.90;;;;;;5087561;28;20025;-58
2024/01/28 05:54:05;;;;;;;8.55;5.32;;;7.00;99.90;;;;;;5087982;28;20098;-59
2024/01/28 05:56:31;;;;;;;6.97;4.95;;;7.00;99.90;;;;;;5069512;28;20032;-58
2024/01/28 05:58:56;;;;;;;10.55;5.45;;;7.00;99.90;;;;;;5069800;28;20029;-59
2024/01/28 06:01:22;;;;;;;10.57;5.68;;;7.00;99.90;;;;;;5052626;28;20059;-59
2024/01/28 06:03:47;;;;;;;6.93;4.78;;;7.00;99.90;;;;;;5087253;28;20042;-59
2024/01/28 06:06:13;;;;;;;6.78;4.45;;;7.00;99.90;;;;;;5087281;28;20020;-59
2024/01/28 06:08:41;;;;;;;8.23;5.10;;;7.00;99.90;;;;;;5087306;28;20042;-59
2024/01/28 06:11:07;;;;;;;8.00;5.03;;;7.00;99.90;;;;;;5069395;28;20020;-59
2024/01/28 06:13:32;;;;;;;8.70;5.55;;;7.00;99.90;;;;;;5052522;28;20035;-59
2024/01/28 06:15:58;;;;;;;6.97;4.97;;;7.00;99.90;;;;;;5086633;28;20477;-59
2024/01/28 06:18:24;;;;;;;7.53;5.10;;;7.00;99.90;;;;;;5069353;28;20037;-59
2024/01/28 06:20:50;;;;;;;20.48;6.45;;;7.00;99.90;;;;;;5069038;28;20032;-59
2024/01/28 06:23:16;;;;;;;19.95;6.82;;;7.00;99.90;;;;;;5069236;28;20032;-59
2024/01/28 06:25:42;;;;;;;19.90;6.47;;;7.00;99.90;;;;;;5068894;28;20027;-59
2024/01/28 06:28:07;;;;;;;24.25;6.93;;;7.00;99.90;;;;;;5086758;28;20032;-59
2024/01/28 06:30:33;;;;;;;24.70;6.70;;;7.00;99.90;;;;;;5086806;28;20048;-60
2024/01/28 06:32:59;;;;;;;36.17;7.28;;;7.00;99.90;;;;;;5068892;28;20476;-59
2024/01/28 06:35:25;;;;;;;36.67;7.57;;;7.00;99.90;;;;;;5068562;28;20039;-59
2024/01/28 06:37:50;;;;;;;32.10;7.78;;;7.00;99.90;;;;;;5051990;28;20031;-60
2024/01/28 06:40:16;;;;;;;34.53;7.38;;;7.00;99.90;;;;;;5086611;28;20032;-59
2024/01/28 06:42:41;;;;;;;27.05;7.35;;;7.00;99.90;;;;;;5068810;28;20028;-60
2024/01/28 06:45:10;;;;;;;24.55;6.80;;;7.00;99.90;;;;;;5068595;28;20028;-59
2024/01/28 06:47:35;;;;;;;30.25;7.35;;;7.00;99.90;;;;;;5086475;28;20028;-59
2024/01/28 06:50:01;;;;;;;32.58;7.88;;;7.00;99.90;;;;;;5051698;28;20477;-58
2024/01/28 06:52:27;;;;;;;18.83;8.32;;;7.00;99.90;;;;;;5051695;28;20032;-59
2024/01/28 06:54:53;;;;;;;26.23;8.30;;;7.00;99.90;;;;;;5068582;28;20077;-59
2024/01/28 06:57:19;;;;;;;31.73;8.43;;;7.00;99.90;;;;;;5086481;28;20028;-59
2024/01/28 06:59:45;;;;;;;18.67;7.22;;;7.00;99.90;;;;;;5068487;28;20029;-59
2024/01/28 07:02:11;;;;;;;14.45;7.43;;;7.00;99.90;;;;;;5068395;28;20027;-59
2024/01/28 07:04:36;;;;;;;28.25;8.38;;;7.00;99.90;;;;;;5068425;28;20040;-59
2024/01/28 07:07:03;;;;;;;24.75;8.25;;;7.10;99.90;;;;;;5051668;28;20084;-59
2024/01/28 07:09:29;;;;;;;21.02;8.32;;;7.10;99.90;;;;;;5086133;28;20032;-59
2024/01/28 07:11:55;;;;;;;26.63;8.48;;;7.10;99.90;;;;;;5068243;28;20028;-59
2024/01/28 07:14:22;;;;;;;26.05;8.38;;;7.00;99.90;;;;;;5068475;28;20048;-59
2024/01/28 07:16:47;;;;;;;26.80;9.25;;;7.10;99.90;;;;;;5051579;28;20488;-59
2024/01/28 07:19:13;;;;;;;19.13;8.75;;;7.10;99.90;;;;;;5086080;28;20090;-59
2024/01/28 07:21:39;;;;;;;21.63;8.48;;;7.10;99.90;;;;;;5068179;28;20025;-59
2024/01/28 07:24:05;;;;;;;22.38;8.50;;;7.10;99.90;;;;;;5068304;28;20400;-60
2024/01/28 07:26:30;;;;;;;20.65;7.47;;;7.10;99.90;;;;;;5085558;28;20021;-59
2024/01/28 07:28:56;;;;;;;24.75;9.00;;;7.10;99.90;;;;;;5072375;28;20491;-59
2024/01/28 07:31:22;;;;;;;24.77;8.82;;;7.10;99.90;;;;;;5072305;28;20031;-59
2024/01/28 07:33:48;;;;;;;20.30;8.75;;;7.20;99.90;;;;;;5072489;28;20037;-59
2024/01/28 07:36:15;;;;;;;27.23;10.35;;;7.10;99.90;;;;;;5088535;28;20036;-59
2024/01/28 07:38:42;;;;;;;80.85;12.48;;;7.10;99.90;;;;;;5072406;28;20036;-59
2024/01/28 07:41:14;;;;;;;64.80;12.63;;;7.20;99.90;;;;;;5072133;28;20058;-59
2024/01/28 07:43:42;;;;;;;34.25;10.30;;;7.10;99.90;;;;;;5073036;28;20025;-59
2024/01/28 07:46:08;;;;;;;20.95;9.63;;;7.20;99.90;;;;;;5089801;28;20039;-59
2024/01/28 07:48:34;;;;;;;21.20;9.60;;;7.20;99.90;;;;;;5055289;28;20024;-59
2024/01/28 07:51:00;;;;;;;36.00;9.52;;;7.20;99.90;;;;;;5072037;28;20040;-59
2024/01/28 07:53:25;;;;;;;41.15;11.27;;;7.20;99.90;;;;;;5072018;28;20037;-59
2024/01/28 07:55:51;;;;;;;31.67;9.85;;;7.20;99.90;;;;;;5071737;28;20391;-59
2024/01/28 07:58:16;;;;;;;35.28;10.43;;;7.20;99.90;;;;;;5071744;28;20029;-59
2024/01/28 08:00:42;;;;;;;25.58;9.55;;;7.20;99.90;;;;;;5071742;28;20084;-59
2024/01/28 08:03:07;;;;;;;26.60;9.07;;;7.20;99.90;;;;;;5089604;28;20115;-49
2024/01/28 08:05:33;;;;;;;32.15;10.02;;;7.30;99.90;;;;;;5053894;28;20082;-50
2024/01/28 08:07:58;;;;;;;32.47;10.38;;;7.30;99.90;;;;;;5070677;28;20104;-49
2024/01/28 08:10:24;;;;;;;27.58;10.38;;;7.30;99.90;;;;;;5070189;28;20020;-49
2024/01/28 08:12:50;;;;;;;35.58;10.05;;;7.30;99.90;;;;;;5069624;28;20029;-49
2024/01/28 08:15:17;;;;;;;34.58;10.68;;;7.30;99.90;;;;;;5069516;28;20026;-49
2024/01/28 08:17:44;;;;;;;29.77;10.65;;;7.30;99.90;;;;;;5070415;28;20037;-50
2024/01/28 08:20:10;;;;;;;22.85;10.73;;;7.40;99.90;;;;;;5088827;28;20558;-50
2024/01/28 08:22:37;;;;;;;27.50;10.60;;;7.40;99.90;;;;;;5087340;28;20029;-49
2024/01/28 08:25:04;;;;;;;29.92;11.98;;;7.30;99.90;;;;;;5071261;28;20396;-50
2024/01/28 08:27:30;;;;;;;30.98;10.82;;;7.40;99.90;;;;;;5071336;28;20025;-50
2024/01/28 08:29:56;;;;;;;26.85;10.18;;;7.40;99.90;;;;;;5088968;28;20022;-49
2024/01/28 08:32:21;;;;;;;32.22;10.73;;;7.40;99.90;;;;;;5088850;28;20028;-49
2024/01/28 08:34:49;;;;;;;23.45;10.52;;;7.40;99.90;;;;;;5053666;28;20063;-50
2024/01/28 08:37:17;;;;;;;22.42;10.27;;;7.40;99.90;;;;;;5086870;28;20120;-49
2024/01/28 08:39:43;;;;;;;32.35;10.40;;;7.40;99.90;;;;;;5068705;28;20025;-50
2024/01/28 08:42:09;;;;;;;21.00;10.65;;;7.40;99.90;;;;;;5068972;28;20029;-50
2024/01/28 08:44:35;;;;;;;20.63;10.95;;;7.40;99.90;;;;;;5086678;28;20029;-49
2024/01/28 08:47:01;;;;;;;31.20;11.25;;;7.40;99.90;;;;;;5086842;28;20020;-50
2024/01/28 08:49:27;;;;;;;23.17;10.52;;;7.40;99.90;;;;;;5086655;28;20092;-49
2024/01/28 08:51:52;;;;;;;25.40;11.32;;;7.40;99.90;;;;;;5087634;28;20460;-49
2024/01/28 08:54:18;;;;;;;16.90;10.32;;;7.40;99.90;;;;;;5070938;28;20043;-49
2024/01/28 08:56:44;;;;;;;19.77;11.27;;;7.40;99.90;;;;;;5070753;28;20036;-49
2024/01/28 08:59:09;;;;;;;19.50;10.50;;;7.40;99.90;;;;;;5088561;28;20028;-49
2024/01/28 09:01:35;;;;;;;23.50;11.02;;;7.40;99.90;;;;;;5088571;28;20031;-50
2024/01/28 09:04:00;;;;;;;19.42;11.10;;;7.40;99.90;;;;;;5069830;28;20107;-49
2024/01/28 09:06:26;;;;;;;23.35;11.88;;;7.40;99.90;;;;;;5087032;28;20077;-49
2024/01/28 09:08:51;;;;;;;25.13;12.00;;;7.40;99.90;;;;;;5070626;28;20029;-50
2024/01/28 09:11:17;;;;;;;22.88;11.38;;;7.40;99.90;;;;;;5069674;28;20562;-49
2024/01/28 09:13:42;;;;;;;23.70;11.60;;;7.40;99.90;;;;;;5088098;28;20028;-49
2024/01/28 09:16:08;;;;;;;31.20;13.32;;;7.40;99.90;;;;;;5070155;28;20059;-49
2024/01/28 09:18:34;;;;;;;22.75;11.85;;;7.50;99.90;;;;;;5087838;28;20063;-50
2024/01/28 09:20:59;;;;;;;35.47;12.05;;;7.40;99.90;;;;;;5086874;28;20377;-49
2024/01/28 09:23:25;;;;;;;23.92;12.27;;;7.50;99.90;;;;;;5070613;28;20033;-50
2024/01/28 09:25:51;;;;;;;22.63;11.82;;;7.50;99.90;;;;;;5088687;28;20032;-50
2024/01/28 09:28:16;;;;;;;23.40;12.82;;;7.50;99.90;;;;;;5087038;28;20033;-50
2024/01/28 09:30:42;;;;;;;30.08;12.85;;;7.50;99.90;;;;;;5085706;28;20032;-49
2024/01/28 09:33:10;;;;;;;24.67;12.75;;;7.50;99.90;;;;;;5069752;28;20029;-49
2024/01/28 09:35:39;;;;;;;31.42;12.82;;;7.50;99.90;;;;;;5078424;28;20032;-49
2024/01/28 09:38:06;;;;;;;26.42;12.80;;;7.50;99.90;;;;;;5053837;28;20036;-50
2024/01/28 09:40:31;;;;;;;62.88;16.33;;;7.50;99.90;;;;;;5073573;28;20024;-49
2024/01/28 09:43:00;;;;;;;35.85;14.30;;;7.50;99.90;;;;;;5087505;28;20052;-50
2024/01/28 09:45:27;;;;;;;57.88;15.43;;;7.60;99.90;;;;;;5085040;28;20036;-50
2024/01/28 09:47:53;;;;;;;52.08;15.57;;;7.60;99.90;;;;;;5057591;28;20092;-50
2024/01/28 09:50:19;;;;;;;41.28;15.50;;;7.60;99.90;;;;;;5055840;28;20021;-50
2024/01/28 09:52:45;;;;;;;39.80;15.68;;;7.60;99.90;;;;;;5077010;28;20067;-49
2024/01/28 09:55:11;;;;;;;58.58;16.48;;;7.60;99.90;;;;;;5094489;28;20033;-50
2024/01/28 09:57:37;;;;;;;48.35;16.27;;;7.60;99.90;;;;;;5060757;28;20074;-49
2024/01/28 10:00:03;;;;;;;65.93;16.40;;;7.70;99.90;;;;;;5066621;28;20425;-49
2024/01/28 10:02:29;;;;;;;69.40;17.70;;;7.70;99.90;;;;;;5076031;28;20081;-49
2024/01/28 10:04:56;;;;;;;98.28;18.95;;;7.70;99.90;;;;;;5087867;28;20028;-49
2024/01/28 10:07:22;;;;;;;79.28;19.30;;;7.70;99.90;;;;;;5069631;28;20040;-50
2024/01/28 10:09:49;;;;;;;82.95;19.58;;;7.80;99.90;;;;;;5085645;28;20035;-49
2024/01/28 10:12:15;;;;;;;77.07;19.65;;;7.80;99.90;;;;;;5065607;28;20033;-50
2024/01/28 10:14:49;;;;;;;75.00;17.58;;;7.80;99.90;;;;;;5098779;28;20028;-50
2024/01/28 10:17:15;;;;;;;66.70;18.03;;;7.90;99.90;;;;;;5066189;28;20036;-50
2024/01/28 10:19:41;;;;;;;77.03;18.85;;;7.90;99.90;;;;;;5068210;28;20028;-50
2024/01/28 10:22:06;;;;;;;94.35;19.02;;;7.90;99.90;;;;;;5073000;28;20024;-50
2024/01/28 10:24:32;;;;;;;79.20;19.77;;;7.90;99.90;;;;;;5061929;28;20028;-50
2024/01/28 10:26:58;;;;;;;88.28;18.73;;;7.90;99.90;;;;;;5072473;28;20061;-49
2024/01/28 10:29:25;;;;;;;77.65;20.02;;;8.00;99.90;;;;;;5076009;28;20028;-49
2024/01/28 10:31:51;;;;;;;94.85;19.65;;;8.00;99.90;;;;;;5085083;28;20087;-50
2024/01/28 10:34:17;;;;;;;95.22;22.20;;;8.00;99.90;;;;;;5051048;28;20032;-50
2024/01/28 10:36:44;;;;;;;109.78;21.77;;;8.00;99.90;;;;;;5092465;28;20024;-50
2024/01/28 10:39:10;;;;;;;100.82;20.08;;;8.10;99.90;;;;;;5063228;28;20035;-49
2024/01/28 10:41:35;;;;;;;114.97;22.77;;;8.10;99.90;;;;;;5067970;28;20028;-49
2024/01/28 10:44:05;;;;;;;114.60;22.45;;;8.10;99.90;;;;;;5069685;28;20043;-50
2024/01/28 10:46:38;;;;;;;104.10;21.30;;;8.10;99.90;;;;;;5069356;28;20020;-49
2024/01/28 10:49:08;;;;;;;119.63;23.70;;;8.10;99.90;;;;;;5095793;28;20103;-50
2024/01/28 10:51:35;;;;;;;110.78;23.42;;;8.20;99.90;;;;;;5077569;28;20021;-49
2024/01/28 10:54:04;;;;;;;101.80;20.85;;;8.20;99.90;;;;;;5066842;28;20108;-49
2024/01/28 10:56:39;;;;;;;139.07;22.00;;;8.20;99.90;;;;;;5077148;28;20032;-50
2024/01/28 10:59:05;;;;;;;;;;;8.30;99.90;;;;;;5063768;28;20024;-49
2024/01/28 11:01:30;;;;;;;;;;;8.30;99.90;;;;;;5090141;28;19916;-49
2024/01/28 11:03:57;;;;;;;111.97;22.87;;;8.30;99.90;;;;;;5070447;28;19939;-49
2024/01/28 11:06:25;;;;;;;132.88;22.58;;;8.30;99.90;;;;;;5082481;28;20047;-50
2024/01/28 11:08:52;;;;;;;122.80;24.20;;;8.40;99.90;;;;;;5071966;28;20029;-49
2024/01/28 11:11:17;;;;;;;149.60;24.98;;;8.40;99.90;;;;;;5065217;28;20028;-49
2024/01/28 11:13:44;;;;;;;147.75;25.80;;;8.40;99.90;;;;;;5040383;28;20174;-49
2024/01/28 11:16:10;;;;;;;175.95;27.75;;;8.50;99.90;;;;;;5067702;28;20051;-49
2024/01/28 11:18:36;;;;;;;181.13;27.13;;;8.40;99.90;;;;;;5084486;28;20033;-50
2024/01/28 11:21:18;;;;;;;164.57;28.88;;;8.50;99.90;;;;;;5079633;28;20024;-49
2024/01/28 11:23:46;;;;;;;154.15;27.00;;;8.50;99.90;;;;;;5095564;28;20036;-49
2024/01/28 11:26:15;;;;;;;139.68;25.67;;;8.60;99.90;;;;;;5082361;28;20021;-50
2024/01/28 11:28:48;;;;;;;127.93;24.88;;;8.60;99.90;;;;;;5066371;28;20039;-50
2024/01/28 11:31:40;;;;;;;142.38;24.30;;;8.60;99.90;;;;;;5052705;28;20513;-49
2024/01/28 11:34:21;;;;;;;112.63;23.08;;;8.60;99.90;;;;;;5084798;28;20048;-50
2024/01/28 11:36:54;;;;;;;139.05;26.73;;;8.70;99.90;;;;;;5076931;28;20439;-50
2024/01/28 11:39:44;;;;;;;144.18;25.50;;;8.70;99.90;;;;;;5061172;28;20033;-49
2024/01/28 11:42:09;;;;;;;155.40;27.38;;;8.70;99.90;;;;;;5072399;28;20028;-50
2024/01/28 11:44:35;;;;;;;239.10;30.67;;;8.70;99.90;;;;;;5052344;28;20039;-50
2024/01/28 11:47:02;;;;;;;280.33;32.05;;;8.70;99.90;;;;;;5069768;28;20106;-50
2024/01/28 11:49:27;;;;;;;129.73;26.38;;;8.70;99.90;;;;;;5064377;28;20089;-49
2024/01/28 11:51:53;;;;;;;158.40;27.77;;;8.70;99.90;;;;;;5069215;28;20021;-49
2024/01/28 11:54:19;;;;;;;179.45;26.70;;;8.70;99.90;;;;;;5093645;28;20063;-50
2024/01/28 11:56:44;;;;;;;140.55;24.67;;;8.70;99.90;;;;;;5098930;28;20052;-49
2024/01/28 11:59:10;;;;;;;127.47;24.13;;;8.80;99.90;;;;;;5071191;28;20043;-49
2024/01/28 12:01:35;;;;;;;124.72;23.05;;;8.80;99.90;;;;;;5088289;28;20056;-50
2024/01/28 12:04:03;;;;;;;130.85;23.83;;;8.80;99.90;;;;;;5082811;28;20036;-50
2024/01/28 12:06:28;;;;;;;137.77;23.17;;;8.80;99.90;;;;;;5097852;28;20441;-50
2024/01/28 12:08:54;;;;;;;140.90;24.52;;;8.80;99.90;;;;;;5067624;28;20028;-50
2024/01/28 12:11:20;;;;;;;148.60;24.65;;;8.80;99.90;;;;;;5075265;28;20097;-50
2024/01/28 12:13:46;;;;;;;158.98;23.98;;;8.90;99.90;;;;;;5081931;28;20078;-49
2024/01/28 12:16:12;;;;;;;125.78;21.58;;;8.90;99.90;;;;;;5059413;28;20029;-49
2024/01/28 12:18:41;;;;;;;142.93;22.63;;;8.90;99.90;;;;;;5067300;28;20054;-50
2024/01/28 12:21:17;;;;;;;163.48;23.38;;;8.90;99.90;;;;;;5077182;28;20028;-50
2024/01/28 12:23:53;;;;;;;133.63;22.13;;;8.90;99.90;;;;;;5072950;28;20025;-49
2024/01/28 12:26:18;;;;;;;170.40;24.73;;;8.90;99.90;;;;;;5086709;28;20033;-49
2024/01/28 12:28:46;;;;;;;141.98;23.17;;;9.00;99.90;;;;;;5071765;28;20059;-50
2024/01/28 12:31:11;;;;;;;150.52;22.30;;;8.90;99.90;;;;;;5074270;28;20020;-50
2024/01/28 12:33:37;;;;;;;130.75;22.80;;;9.00;99.90;;;;;;5080786;28;20039;-50
2024/01/28 12:36:03;;;;;;;112.57;20.80;;;9.00;99.90;;;;;;5069382;28;20488;-50
2024/01/28 12:38:28;;;;;;;130.88;21.38;;;9.00;99.90;;;;;;5070300;28;20032;-50